Главная страница
METAR-TAF:

METAR-TAF

Аэропорты :

Ljungbyhed, Швеция

широта: 56-04N, долгота: 013-12E, высота над уровнем моря: 43 м

Текущие метеонаблюдения

Эта сводка был подготовлена 17 минут назад, в 14:20 UTC
Ветер 14 Узел от северо-западный
Температура 30°C
Влажность 43%
Давление 1019 hPa
Видимость 10 км и более

METAR: ESTL 091420Z AUTO 31014KT 9999 NCD 30/16 Q1019

Время: 16:37 (14:37 UTC)


TAF: отсутствует

Метеонаблюдения и прогнозы для более 4000 аэропортов (сводки METAR и TAF).

Имеющиеся станции представлены на карте желтыми и красными точками.

Чтобы увидеть название станции, наведите на нее мышь.

Затем щелкните, чтобы увидеть метеонаблюдения и метеопрогнозы.

Управление картой: чтобы увеличить масштаб, щелкните зеленые кнопки с черным крестиком; чтобы уменьшить масштаб, щелкните зеленую кнопку с тире; для просмотра соседних карт щелкайте зеленые стрелки.


METAR-TAF: